Time;durP1;ratioP1;P1;durP2;ratioP2;P2;SDS_P1;SDS_P2;PMS_P1;PMS_P2;Temp;Humidity;BMP_temperature;BMP_pressure;BME280_temperature;BME280_humidity;BME280_pressure;Samples;Min_cycle;Max_cycle;Signal;HPM_P1;HPM_P2
2023/03/12 00:01:28;;;;;;;7.25;4.70;;;;;;;;;;5116825;28;20636;-86
2023/03/12 00:03:54;;;;;;;6.53;5.28;;;;;;;;;;5117607;28;20230;-86
2023/03/12 00:06:20;;;;;;;6.97;3.83;;;;;;;;;;5116838;28;20295;-86
2023/03/12 00:08:47;;;;;;;7.20;5.05;;;;;;;;;;5099018;28;20184;-85
2023/03/12 00:11:15;;;;;;;9.25;4.40;;;;;;;;;;5098542;28;20176;-84
2023/03/12 00:13:41;;;;;;;7.05;4.45;;;;;;;;;;5098395;28;20199;-86
2023/03/12 00:16:08;;;;;;;6.28;4.10;;;;;;;;;;5116668;28;20257;-86
2023/03/12 00:18:34;;;;;;;12.55;4.63;;;;;;;;;;5116940;28;20224;-85
2023/03/12 00:21:00;;;;;;;9.52;3.60;;;;;;;;;;5116900;28;20189;-85
2023/03/12 00:23:26;;;;;;;6.63;4.10;;;;;;;;;;5116493;28;20205;-86
2023/03/12 00:25:52;;;;;;;6.25;4.00;;;;;;;;;;5116551;28;20199;-86
2023/03/12 00:28:18;;;;;;;6.38;3.95;;;;;;;;;;5116724;28;20214;-86
2023/03/12 00:30:44;;;;;;;5.57;3.30;;;;;;;;;;5116522;28;20172;-85
2023/03/12 00:33:11;;;;;;;7.45;4.05;;;;;;;;;;5117072;28;20177;-85
2023/03/12 00:35:38;;;;;;;5.18;3.40;;;;;;;;;;5098207;28;20184;-86
2023/03/12 00:38:04;;;;;;;4.22;3.38;;;;;;;;;;5116292;28;20532;-86
2023/03/12 00:40:30;;;;;;;4.15;3.47;;;;;;;;;;5116631;28;20499;-85
2023/03/12 00:42:56;;;;;;;5.80;3.47;;;;;;;;;;5117103;28;20643;-85
2023/03/12 00:45:22;;;;;;;4.95;3.13;;;;;;;;;;5098584;28;20168;-85
2023/03/12 00:47:48;;;;;;;10.38;3.50;;;;;;;;;;5099098;28;20180;-85
2023/03/12 00:50:14;;;;;;;7.68;4.00;;;;;;;;;;5098455;28;20230;-84
2023/03/12 00:52:40;;;;;;;8.35;3.63;;;;;;;;;;5098894;28;20238;-85
2023/03/12 00:55:07;;;;;;;6.88;3.17;;;;;;;;;;5116893;28;20175;-85
2023/03/12 00:57:33;;;;;;;5.65;2.63;;;;;;;;;;5116178;28;20255;-85
2023/03/12 00:59:59;;;;;;;5.53;3.05;;;;;;;;;;5116744;28;20178;-85
2023/03/12 01:02:25;;;;;;;4.22;2.97;;;;;;;;;;5116493;28;20181;-85
2023/03/12 01:04:51;;;;;;;4.13;3.00;;;;;;;;;;5098280;28;20225;-85
2023/03/12 01:07:17;;;;;;;5.72;2.90;;;;;;;;;;5116412;28;20204;-84
2023/03/12 01:09:43;;;;;;;4.28;2.53;;;;;;;;;;5117609;28;20197;-85
2023/03/12 01:12:09;;;;;;;3.72;2.67;;;;;;;;;;5116209;28;20177;-85
2023/03/12 01:14:35;;;;;;;3.53;3.22;;;;;;;;;;5116022;28;20375;-85
2023/03/12 01:17:01;;;;;;;5.22;3.17;;;;;;;;;;5097831;28;20183;-85
2023/03/12 01:19:27;;;;;;;2.92;2.30;;;;;;;;;;5115834;28;20176;-85
2023/03/12 01:21:53;;;;;;;6.45;2.90;;;;;;;;;;5097847;28;20197;-85
2023/03/12 01:24:19;;;;;;;4.40;2.67;;;;;;;;;;5097576;28;20644;-84
2023/03/12 01:26:45;;;;;;;5.30;2.58;;;;;;;;;;5116123;28;20204;-84
2023/03/12 01:29:11;;;;;;;6.53;2.95;;;;;;;;;;5098370;28;20185;-85
2023/03/12 01:31:37;;;;;;;4.35;3.20;;;;;;;;;;5115800;28;20236;-84
2023/03/12 01:34:03;;;;;;;5.55;3.20;;;;;;;;;;5115193;28;20182;-85
2023/03/12 01:36:30;;;;;;;10.13;2.50;;;;;;;;;;5099338;28;20181;-85
2023/03/12 01:38:57;;;;;;;11.95;3.10;;;;;;;;;;5116051;28;20678;-85
2023/03/12 01:41:24;;;;;;;11.13;2.75;;;;;;;;;;5115821;28;20177;-85
2023/03/12 01:43:51;;;;;;;5.30;2.40;;;;;;;;;;5116542;28;20192;-84
2023/03/12 01:46:27;;;;;;;7.90;2.90;;;;;;;;;;5115732;28;20198;-85
2023/03/12 01:48:56;;;;;;;7.35;2.75;;;;;;;;;;5115833;28;20184;-85
2023/03/12 01:51:24;;;;;;;6.45;2.65;;;;;;;;;;5114818;28;20571;-84
2023/03/12 01:53:53;;;;;;;6.63;2.85;;;;;;;;;;5115079;28;20204;-84
2023/03/12 01:56:20;;;;;;;6.25;2.47;;;;;;;;;;5115318;28;20177;-83
2023/03/12 01:58:50;;;;;;;3.60;2.60;;;;;;;;;;5115161;28;20695;-85
2023/03/12 02:01:17;;;;;;;5.18;2.33;;;;;;;;;;5115548;28;20178;-85
2023/03/12 02:03:44;;;;;;;8.57;2.55;;;;;;;;;;5115039;28;20197;-84
2023/03/12 02:06:13;;;;;;;5.43;2.53;;;;;;;;;;5114904;28;20225;-85
2023/03/12 02:08:41;;;;;;;4.35;3.20;;;;;;;;;;5096823;28;21049;-84
2023/03/12 02:11:07;;;;;;;3.22;2.10;;;;;;;;;;5115508;28;20201;-85
2023/03/12 02:13:33;;;;;;;8.15;2.33;;;;;;;;;;5114515;28;20202;-85
2023/03/12 02:15:59;;;;;;;5.38;2.05;;;;;;;;;;5080455;28;20556;-85
2023/03/12 02:18:26;;;;;;;5.53;2.40;;;;;;;;;;5096767;28;20175;-84
2023/03/12 02:21:00;;;;;;;2.92;2.50;;;;;;;;;;5115434;28;20178;-85
2023/03/12 02:23:28;;;;;;;2.92;2.28;;;;;;;;;;5115043;28;20172;-84
2023/03/12 02:25:55;;;;;;;9.15;2.22;;;;;;;;;;5114643;28;20536;-85
2023/03/12 02:28:23;;;;;;;8.23;2.97;;;;;;;;;;5115071;28;20176;-84
2023/03/12 02:30:51;;;;;;;4.35;2.70;;;;;;;;;;5115491;28;20230;-85
2023/03/12 02:33:17;;;;;;;6.13;1.90;;;;;;;;;;5115269;28;20563;-85
2023/03/12 02:35:43;;;;;;;10.25;2.40;;;;;;;;;;5096515;28;20199;-82
2023/03/12 02:38:28;;;;;;;6.63;2.33;;;;;;;;;;5097399;28;20585;-84
2023/03/12 02:40:55;;;;;;;8.80;2.15;;;;;;;;;;5115488;28;20238;-85
2023/03/12 02:43:22;;;;;;;6.53;2.00;;;;;;;;;;5096574;28;20674;-84
2023/03/12 02:45:48;;;;;;;4.15;1.70;;;;;;;;;;5117300;28;20627;-84
2023/03/12 02:48:14;;;;;;;4.05;2.25;;;;;;;;;;5119435;28;20198;-84
2023/03/12 02:50:40;;;;;;;3.90;2.55;;;;;;;;;;5118854;28;20178;-85
2023/03/12 02:53:06;;;;;;;7.53;2.38;;;;;;;;;;5118304;28;20185;-85
2023/03/12 02:55:32;;;;;;;3.90;2.00;;;;;;;;;;5100332;28;20190;-84
2023/03/12 02:57:58;;;;;;;5.80;2.60;;;;;;;;;;5118940;28;20170;-85
2023/03/12 03:00:24;;;;;;;4.00;2.45;;;;;;;;;;5100059;28;20528;-85
2023/03/12 03:02:50;;;;;;;4.47;2.13;;;;;;;;;;5100742;28;20187;-84
2023/03/12 03:05:16;;;;;;;2.75;2.30;;;;;;;;;;5118602;28;20234;-85
2023/03/12 03:07:42;;;;;;;4.90;1.83;;;;;;;;;;5118283;28;20244;-84
2023/03/12 03:10:08;;;;;;;4.25;2.15;;;;;;;;;;5118326;28;20198;-85
2023/03/12 03:12:35;;;;;;;3.50;2.25;;;;;;;;;;5117980;28;20187;-84
2023/03/12 03:15:01;;;;;;;3.92;2.20;;;;;;;;;;5118363;28;20174;-84
2023/03/12 03:17:27;;;;;;;4.40;2.50;;;;;;;;;;5099873;28;20242;-84
2023/03/12 03:19:54;;;;;;;10.38;2.80;;;;;;;;;;5117946;28;20174;-84
2023/03/12 03:22:20;;;;;;;3.40;2.20;;;;;;;;;;5118343;28;20678;-84
2023/03/12 03:24:46;;;;;;;5.95;2.53;;;;;;;;;;5100202;28;20257;-84
2023/03/12 03:27:12;;;;;;;9.27;2.28;;;;;;;;;;5117964;28;20206;-85
2023/03/12 03:29:39;;;;;;;4.18;2.25;;;;;;;;;;5117865;28;20187;-84
2023/03/12 03:32:05;;;;;;;2.60;1.98;;;;;;;;;;5099617;28;20171;-84
2023/03/12 03:34:31;;;;;;;9.48;2.90;;;;;;;;;;5117640;28;20185;-84
2023/03/12 03:36:57;;;;;;;5.00;2.30;;;;;;;;;;5117978;28;20209;-85
2023/03/12 03:39:24;;;;;;;5.05;2.53;;;;;;;;;;5083022;28;20194;-85
2023/03/12 03:41:50;;;;;;;7.38;2.40;;;;;;;;;;5118139;28;20572;-85
2023/03/12 03:44:17;;;;;;;5.55;2.40;;;;;;;;;;5118056;28;20232;-86
2023/03/12 03:46:43;;;;;;;4.55;2.55;;;;;;;;;;5117820;28;20255;-85
2023/03/12 03:49:09;;;;;;;3.25;2.20;;;;;;;;;;5117919;28;20180;-85
2023/03/12 03:51:35;;;;;;;5.13;2.78;;;;;;;;;;5117946;28;20177;-85
2023/03/12 03:54:01;;;;;;;6.35;2.47;;;;;;;;;;5117913;28;20171;-85
2023/03/12 03:56:27;;;;;;;3.75;2.25;;;;;;;;;;5116838;28;20183;-84
2023/03/12 03:58:53;;;;;;;2.20;2.00;;;;;;;;;;5117675;28;20176;-85
2023/03/12 04:01:19;;;;;;;2.90;1.90;;;;;;;;;;5117436;28;20179;-85
2023/03/12 04:03:46;;;;;;;11.38;2.60;;;;;;;;;;5117202;28;20170;-83
2023/03/12 04:06:12;;;;;;;3.25;2.00;;;;;;;;;;5099574;28;20672;-85
2023/03/12 04:08:38;;;;;;;4.90;3.13;;;;;;;;;;5116985;28;20579;-85
2023/03/12 04:11:08;;;;;;;3.85;2.15;;;;;;;;;;5117716;28;20175;-84
2023/03/12 04:13:34;;;;;;;3.28;2.08;;;;;;;;;;5116944;28;20171;-85
2023/03/12 04:16:00;;;;;;;4.90;2.40;;;;;;;;;;5118801;28;20186;-85
2023/03/12 04:18:26;;;;;;;11.15;2.55;;;;;;;;;;5117328;28;20514;-85
2023/03/12 04:20:52;;;;;;;6.45;3.78;;;;;;;;;;5117549;28;20521;-85
2023/03/12 04:23:18;;;;;;;4.40;2.10;;;;;;;;;;5099888;28;20620;-85
2023/03/12 04:25:44;;;;;;;3.20;1.83;;;;;;;;;;5117567;28;20236;-84
2023/03/12 04:28:10;;;;;;;5.57;2.35;;;;;;;;;;5117421;28;20183;-84
2023/03/12 04:30:37;;;;;;;2.58;1.73;;;;;;;;;;5116593;28;20172;-84
2023/03/12 04:33:03;;;;;;;6.03;1.88;;;;;;;;;;5117116;28;20178;-85
2023/03/12 04:35:30;;;;;;;3.80;2.55;;;;;;;;;;5116956;28;20172;-84
2023/03/12 04:37:56;;;;;;;4.13;2.20;;;;;;;;;;5117062;28;20177;-84
2023/03/12 04:40:22;;;;;;;5.28;2.35;;;;;;;;;;5117145;28;20504;-85
2023/03/12 04:42:48;;;;;;;9.68;2.90;;;;;;;;;;5116732;28;20970;-84
2023/03/12 04:45:14;;;;;;;3.95;2.00;;;;;;;;;;5116961;28;20257;-84
2023/03/12 04:47:40;;;;;;;6.22;2.60;;;;;;;;;;5098171;28;20302;-84
2023/03/12 04:50:07;;;;;;;3.70;2.45;;;;;;;;;;5117168;28;20175;-83
2023/03/12 04:52:33;;;;;;;3.63;2.65;;;;;;;;;;5116894;28;20177;-83
2023/03/12 04:54:59;;;;;;;3.70;2.38;;;;;;;;;;5117348;28;20175;-83
2023/03/12 04:57:25;;;;;;;7.68;2.92;;;;;;;;;;5117052;28;20176;-83
2023/03/12 04:59:51;;;;;;;3.35;2.42;;;;;;;;;;5116717;28;20173;-83
2023/03/12 05:02:17;;;;;;;5.10;2.47;;;;;;;;;;5117488;28;20182;-83
2023/03/12 05:04:43;;;;;;;5.90;2.90;;;;;;;;;;5116550;28;20307;-83
2023/03/12 05:07:09;;;;;;;7.15;2.78;;;;;;;;;;5116714;28;20207;-83
2023/03/12 05:09:35;;;;;;;3.40;2.60;;;;;;;;;;5115770;28;20182;-83
2023/03/12 05:12:01;;;;;;;5.93;2.58;;;;;;;;;;5098345;28;20214;-83
2023/03/12 05:14:27;;;;;;;10.00;3.13;;;;;;;;;;5116681;28;20182;-83
2023/03/12 05:16:53;;;;;;;4.95;3.22;;;;;;;;;;5116416;28;20189;-83
2023/03/12 05:19:20;;;;;;;8.88;2.95;;;;;;;;;;5116858;28;20567;-83
2023/03/12 05:21:45;;;;;;;6.03;2.70;;;;;;;;;;5116534;28;20205;-83
2023/03/12 05:24:12;;;;;;;6.25;2.45;;;;;;;;;;5117069;28;20183;-83
2023/03/12 05:26:38;;;;;;;7.28;2.85;;;;;;;;;;5116376;28;20208;-83
2023/03/12 05:29:04;;;;;;;7.50;2.92;;;;;;;;;;5117358;28;20574;-82
2023/03/12 05:31:33;;;;;;;8.80;3.40;;;;;;;;;;5117049;28;20520;-82
2023/03/12 05:33:59;;;;;;;5.50;2.65;;;;;;;;;;5117367;28;20230;-82
2023/03/12 05:36:25;;;;;;;7.13;2.85;;;;;;;;;;5117377;28;20191;-82
2023/03/12 05:38:51;;;;;;;5.97;2.80;;;;;;;;;;5099356;28;20539;-82
2023/03/12 05:41:19;;;;;;;7.78;3.53;;;;;;;;;;5118041;28;20229;-82
2023/03/12 05:43:45;;;;;;;7.53;2.88;;;;;;;;;;5116819;28;20219;-82
2023/03/12 05:46:11;;;;;;;10.73;3.17;;;;;;;;;;5116539;28;20203;-82
2023/03/12 05:48:37;;;;;;;9.02;2.55;;;;;;;;;;5116245;28;20267;-82
2023/03/12 05:51:03;;;;;;;3.53;3.20;;;;;;;;;;5116338;28;20176;-82
2023/03/12 05:53:29;;;;;;;5.75;2.92;;;;;;;;;;5116663;28;20177;-82
2023/03/12 05:55:55;;;;;;;3.90;2.60;;;;;;;;;;5116400;28;20179;-82
2023/03/12 05:58:21;;;;;;;7.82;3.38;;;;;;;;;;5116109;28;20648;-82
2023/03/12 06:00:48;;;;;;;3.90;2.40;;;;;;;;;;5098022;28;20637;-83
2023/03/12 06:03:14;;;;;;;4.45;2.33;;;;;;;;;;5116474;28;20201;-82
2023/03/12 06:05:40;;;;;;;10.38;3.20;;;;;;;;;;5115962;28;20367;-83
2023/03/12 06:08:06;;;;;;;4.53;2.60;;;;;;;;;;5115387;28;20589;-83
2023/03/12 06:10:32;;;;;;;10.02;3.28;;;;;;;;;;5116146;28;20165;-83
2023/03/12 06:12:58;;;;;;;5.63;2.67;;;;;;;;;;5097887;28;20226;-83
2023/03/12 06:15:24;;;;;;;4.45;2.95;;;;;;;;;;5116616;28;20524;-83
2023/03/12 06:17:50;;;;;;;5.85;2.85;;;;;;;;;;5098196;28;20231;-83
2023/03/12 06:20:16;;;;;;;4.38;2.42;;;;;;;;;;5119021;28;20182;-83
2023/03/12 06:22:42;;;;;;;7.38;2.72;;;;;;;;;;5122534;28;20182;-83
2023/03/12 06:25:09;;;;;;;5.07;3.60;;;;;;;;;;5122633;28;20177;-83
2023/03/12 06:27:35;;;;;;;8.38;3.22;;;;;;;;;;5121677;28;20201;-84
2023/03/12 06:30:02;;;;;;;5.00;3.42;;;;;;;;;;5123143;28;20504;-83
2023/03/12 06:32:28;;;;;;;8.95;3.50;;;;;;;;;;5122354;28;20162;-83
2023/03/12 06:34:54;;;;;;;8.55;2.92;;;;;;;;;;5122205;28;20528;-83
2023/03/12 06:37:20;;;;;;;5.32;2.75;;;;;;;;;;5122158;28;20178;-84
2023/03/12 06:39:46;;;;;;;7.80;2.80;;;;;;;;;;5121884;28;20641;-83
2023/03/12 06:42:13;;;;;;;5.88;3.22;;;;;;;;;;5121605;28;20178;-83
2023/03/12 06:44:39;;;;;;;4.82;2.83;;;;;;;;;;5122175;28;20256;-84
2023/03/12 06:47:05;;;;;;;6.13;3.13;;;;;;;;;;5122417;28;20212;-83
2023/03/12 06:49:33;;;;;;;4.78;3.13;;;;;;;;;;5122340;28;20170;-83
2023/03/12 06:51:59;;;;;;;6.35;2.85;;;;;;;;;;5121293;28;20166;-83
2023/03/12 06:54:25;;;;;;;8.50;2.90;;;;;;;;;;5121963;28;20173;-84
2023/03/12 06:56:51;;;;;;;7.55;3.05;;;;;;;;;;5104948;27;20258;-84
2023/03/12 06:59:17;;;;;;;4.45;2.55;;;;;;;;;;5123918;28;20173;-84
2023/03/12 07:01:43;;;;;;;3.85;2.75;;;;;;;;;;5105741;28;20195;-84
2023/03/12 07:04:09;;;;;;;8.25;2.90;;;;;;;;;;5103440;28;20566;-84
2023/03/12 07:06:35;;;;;;;8.45;3.55;;;;;;;;;;5122040;28;20214;-84
2023/03/12 07:09:01;;;;;;;6.82;3.38;;;;;;;;;;5104465;28;20179;-84
2023/03/12 07:11:27;;;;;;;7.43;3.85;;;;;;;;;;5124666;28;20178;-84
2023/03/12 07:13:53;;;;;;;4.85;3.33;;;;;;;;;;5123698;28;20179;-80
2023/03/12 07:16:19;;;;;;;6.10;3.35;;;;;;;;;;5123034;28;20190;-81
2023/03/12 07:18:45;;;;;;;3.42;2.90;;;;;;;;;;5123560;28;20257;-80
2023/03/12 07:21:11;;;;;;;8.20;3.72;;;;;;;;;;5123370;28;20297;-81
2023/03/12 07:23:37;;;;;;;8.70;3.47;;;;;;;;;;5123210;28;20182;-81
2023/03/12 07:26:04;;;;;;;4.25;3.00;;;;;;;;;;5122760;28;20206;-81
2023/03/12 07:28:30;;;;;;;7.25;3.20;;;;;;;;;;5122818;28;20179;-81
2023/03/12 07:31:00;;;;;;;6.70;2.90;;;;;;;;;;5121730;28;20167;-83
2023/03/12 07:33:26;;;;;;;5.28;3.38;;;;;;;;;;5119466;28;20209;-81
2023/03/12 07:35:52;;;;;;;5.78;3.15;;;;;;;;;;5119506;28;20188;-81
2023/03/12 07:38:18;;;;;;;8.65;3.65;;;;;;;;;;5120167;28;20179;-80
2023/03/12 07:40:44;;;;;;;8.18;3.50;;;;;;;;;;5119960;28;20534;-81
2023/03/12 07:43:11;;;;;;;4.57;3.00;;;;;;;;;;5119953;28;20190;-81
2023/03/12 07:45:38;;;;;;;5.95;3.75;;;;;;;;;;5119327;28;20705;-81
2023/03/12 07:48:05;;;;;;;5.07;3.05;;;;;;;;;;5101349;28;20299;-81
2023/03/12 07:50:31;;;;;;;5.32;2.90;;;;;;;;;;5119016;28;20208;-82
2023/03/12 07:52:57;;;;;;;6.68;3.33;;;;;;;;;;5119621;28;20211;-81
2023/03/12 07:55:23;;;;;;;7.28;3.60;;;;;;;;;;5119487;28;20626;-81
2023/03/12 07:57:49;;;;;;;5.00;3.60;;;;;;;;;;5118476;28;20175;-81
2023/03/12 08:00:16;;;;;;;6.53;3.25;;;;;;;;;;5118790;28;20171;-81
2023/03/12 08:02:42;;;;;;;3.83;3.42;;;;;;;;;;5118542;28;20179;-82
2023/03/12 08:05:09;;;;;;;4.97;2.95;;;;;;;;;;5119326;28;20237;-80
2023/03/12 08:07:35;;;;;;;4.78;3.45;;;;;;;;;;5119059;28;20209;-79
2023/03/12 08:10:02;;;;;;;5.03;3.00;;;;;;;;;;5118580;28;20228;-80
2023/03/12 08:12:28;;;;;;;5.25;2.92;;;;;;;;;;5119013;28;20181;-80
2023/03/12 08:14:54;;;;;;;9.55;4.10;;;;;;;;;;5118700;28;20186;-80
2023/03/12 08:17:20;;;;;;;4.90;3.72;;;;;;;;;;5119444;28;20527;-80
2023/03/12 08:19:46;;;;;;;4.38;3.53;;;;;;;;;;5118571;28;20207;-81
2023/03/12 08:22:12;;;;;;;4.25;3.80;;;;;;;;;;5118705;28;20608;-80
2023/03/12 08:24:38;;;;;;;5.30;3.80;;;;;;;;;;5118562;28;20259;-80
2023/03/12 08:27:04;;;;;;;6.65;4.03;;;;;;;;;;5118493;28;20214;-80
2023/03/12 08:29:32;;;;;;;5.20;4.70;;;;;;;;;;5118699;28;20667;-80
2023/03/12 08:31:58;;;;;;;7.65;5.15;;;;;;;;;;5118694;28;20167;-80
2023/03/12 08:34:24;;;;;;;4.60;4.20;;;;;;;;;;5099939;28;20211;-80
2023/03/12 08:36:50;;;;;;;8.07;4.30;;;;;;;;;;5118283;28;20180;-81
2023/03/12 08:39:16;;;;;;;4.93;4.43;;;;;;;;;;5118590;28;20172;-80
2023/03/12 08:41:42;;;;;;;7.25;4.75;;;;;;;;;;5100012;28;20190;-80
2023/03/12 08:44:08;;;;;;;7.63;4.20;;;;;;;;;;5099788;28;20182;-80
2023/03/12 08:46:34;;;;;;;6.07;4.70;;;;;;;;;;5117903;28;20243;-81
2023/03/12 08:49:00;;;;;;;5.15;4.65;;;;;;;;;;5117976;28;20186;-82
2023/03/12 08:51:26;;;;;;;6.60;5.10;;;;;;;;;;5099757;28;20183;-81
2023/03/12 08:53:52;;;;;;;9.90;5.63;;;;;;;;;;5118030;28;20197;-81
2023/03/12 08:56:18;;;;;;;6.13;5.55;;;;;;;;;;5118144;28;20568;-81
2023/03/12 08:58:44;;;;;;;7.28;5.38;;;;;;;;;;5117739;28;20168;-83
2023/03/12 09:01:11;;;;;;;5.85;4.70;;;;;;;;;;5118130;28;20176;-82
2023/03/12 09:03:39;;;;;;;6.15;5.53;;;;;;;;;;5117984;28;20180;-82
2023/03/12 09:06:11;;;;;;;8.02;5.65;;;;;;;;;;5099142;28;20231;-81
2023/03/12 09:08:37;;;;;;;7.35;5.90;;;;;;;;;;5118092;28;20160;-82
2023/03/12 09:11:04;;;;;;;6.50;5.90;;;;;;;;;;5117969;28;20176;-82
2023/03/12 09:13:30;;;;;;;7.70;6.70;;;;;;;;;;5099162;28;20278;-82
2023/03/12 09:16:00;;;;;;;8.15;6.35;;;;;;;;;;5117055;28;20177;-82
2023/03/12 09:18:26;;;;;;;7.95;6.38;;;;;;;;;;5118054;28;20168;-82
2023/03/12 09:20:52;;;;;;;8.60;6.20;;;;;;;;;;5117064;28;20515;-82
2023/03/12 09:23:18;;;;;;;7.47;6.72;;;;;;;;;;5117913;28;20170;-82
2023/03/12 09:25:47;;;;;;;9.57;7.75;;;;;;;;;;5116965;28;20201;-82
2023/03/12 09:28:13;;;;;;;8.18;6.50;;;;;;;;;;5117604;28;20167;-81
2023/03/12 09:30:39;;;;;;;8.15;7.07;;;;;;;;;;5098878;28;20215;-82
2023/03/12 09:33:05;;;;;;;8.00;6.43;;;;;;;;;;5098441;28;20474;-82
2023/03/12 09:35:32;;;;;;;8.25;6.18;;;;;;;;;;5098726;28;20192;-81
2023/03/12 09:37:58;;;;;;;9.18;7.00;;;;;;;;;;5117492;28;20175;-81
2023/03/12 09:40:27;;;;;;;8.60;6.65;;;;;;;;;;5116997;28;20190;-81
2023/03/12 09:42:58;;;;;;;6.68;5.93;;;;;;;;;;5116815;28;20172;-81
2023/03/12 09:45:25;;;;;;;7.68;6.90;;;;;;;;;;5116187;28;20201;-81
2023/03/12 09:47:53;;;;;;;8.10;6.45;;;;;;;;;;5116551;28;20191;-81
2023/03/12 09:50:22;;;;;;;7.60;5.65;;;;;;;;;;5116905;28;20178;-81
2023/03/12 09:52:56;;;;;;;6.28;5.68;;;;;;;;;;5116515;28;20650;-82
2023/03/12 09:55:22;;;;;;;7.40;5.97;;;;;;;;;;5115978;28;20163;-81
2023/03/12 09:57:50;;;;;;;7.05;6.15;;;;;;;;;;5097908;28;20176;-82
2023/03/12 10:00:23;;;;;;;5.88;5.30;;;;;;;;;;5116298;28;20209;-81
2023/03/12 10:02:58;;;;;;;6.35;5.47;;;;;;;;;;5098131;28;20186;-83
2023/03/12 10:05:31;;;;;;;6.55;5.75;;;;;;;;;;5116424;28;20263;-83
2023/03/12 10:08:00;;;;;;;13.07;6.40;;;;;;;;;;5115596;28;20175;-83
2023/03/12 10:10:30;;;;;;;6.88;5.50;;;;;;;;;;5115542;28;20168;-83
2023/03/12 10:13:06;;;;;;;12.32;6.63;;;;;;;;;;5115367;28;20632;-84
2023/03/12 10:15:35;;;;;;;11.52;7.03;;;;;;;;;;5096832;28;20178;-84
2023/03/12 10:18:11;;;;;;;9.32;7.55;;;;;;;;;;5114946;28;20182;-86
2023/03/12 10:20:50;;;;;;;7.22;5.93;;;;;;;;;;5114918;28;20167;-82
2023/03/12 10:23:29;;;;;;;8.75;6.05;;;;;;;;;;5114833;28;20375;-84
2023/03/12 10:26:03;;;;;;;6.10;5.50;;;;;;;;;;5114431;28;20612;-83
2023/03/12 10:28:49;;;;;;;8.05;7.25;;;;;;;;;;5114680;28;20250;-83
2023/03/12 10:31:18;;;;;;;6.60;5.40;;;;;;;;;;5115068;28;20486;-83
2023/03/12 10:33:47;;;;;;;4.68;3.90;;;;;;;;;;5096709;28;20183;-84
2023/03/12 10:36:24;;;;;;;14.38;4.72;;;;;;;;;;5114240;28;20180;-84
2023/03/12 10:38:50;;;;;;;7.72;5.32;;;;;;;;;;5114972;28;20183;-84
2023/03/12 10:41:19;;;;;;;6.72;4.93;;;;;;;;;;5096615;28;20209;-84
2023/03/12 10:43:45;;;;;;;7.50;4.28;;;;;;;;;;5096387;28;20172;-83
2023/03/12 10:46:15;;;;;;;9.05;6.05;;;;;;;;;;5114488;28;20199;-83
2023/03/12 10:48:42;;;;;;;9.55;6.63;;;;;;;;;;5114927;28;20183;-84
2023/03/12 10:51:10;;;;;;;12.27;6.68;;;;;;;;;;5113940;28;20172;-84
2023/03/12 10:53:38;;;;;;;13.98;7.13;;;;;;;;;;5114825;28;20172;-84
2023/03/12 10:56:04;;;;;;;13.80;7.72;;;;;;;;;;5114187;28;20635;-84
2023/03/12 10:58:49;;;;;;;15.27;7.55;;;;;;;;;;5095848;28;20641;-83
2023/03/12 11:01:23;;;;;;;10.57;7.68;;;;;;;;;;5114592;28;20228;-83
2023/03/12 11:03:50;;;;;;;20.42;8.15;;;;;;;;;;5096573;28;20278;-83
2023/03/12 11:06:29;;;;;;;11.52;7.05;;;;;;;;;;5115061;28;20198;-82
2023/03/12 11:09:04;;;;;;;24.63;9.35;;;;;;;;;;5118711;28;20193;-83
2023/03/12 11:11:31;;;;;;;16.63;8.50;;;;;;;;;;5100060;28;20179;-83
2023/03/12 11:14:08;;;;;;;19.10;8.93;;;;;;;;;;5100490;28;20266;-83
2023/03/12 11:16:34;;;;;;;17.63;9.30;;;;;;;;;;5100385;28;20179;-84
2023/03/12 11:19:02;;;;;;;14.43;8.05;;;;;;;;;;5118378;28;20205;-82
2023/03/12 11:21:29;;;;;;;16.92;9.07;;;;;;;;;;5118008;28;20163;-83
2023/03/12 11:23:58;;;;;;;14.77;8.88;;;;;;;;;;5118273;28;20189;-83
2023/03/12 11:26:43;;;;;;;23.73;8.80;;;;;;;;;;5100528;28;20549;-83
2023/03/12 11:29:13;;;;;;;24.20;8.32;;;;;;;;;;5099833;28;20574;-84
2023/03/12 11:31:42;;;;;;;14.52;8.00;;;;;;;;;;5118702;28;20258;-82
2023/03/12 11:34:15;;;;;;;21.88;8.60;;;;;;;;;;5117742;28;20305;-82
2023/03/12 11:36:45;;;;;;;17.70;8.60;;;;;;;;;;5117761;28;20164;-82
2023/03/12 11:39:14;;;;;;;15.30;8.85;;;;;;;;;;5099796;28;20556;-82
2023/03/12 11:41:46;;;;;;;20.65;9.40;;;;;;;;;;5117741;28;20631;-82
2023/03/12 11:44:20;;;;;;;18.08;9.10;;;;;;;;;;5117191;28;20224;-82
2023/03/12 11:46:59;;;;;;;18.52;8.80;;;;;;;;;;5117989;28;20224;-82
2023/03/12 11:49:44;;;;;;;11.95;7.88;;;;;;;;;;5117862;28;20254;-82
2023/03/12 11:52:21;;;;;;;14.73;8.60;;;;;;;;;;5099260;28;20179;-82
2023/03/12 11:55:03;;;;;;;18.00;8.55;;;;;;;;;;5117507;28;20159;-83
2023/03/12 11:57:48;;;;;;;18.75;8.30;;;;;;;;;;5099033;28;20176;-83
2023/03/12 12:00:19;;;;;;;21.55;9.75;;;;;;;;;;5099334;28;20626;-81
2023/03/12 12:03:04;;;;;;;15.65;7.47;;;;;;;;;;5118002;28;20171;-82
2023/03/12 12:05:48;;;;;;;15.57;6.80;;;;;;;;;;5098814;28;20231;-82
2023/03/12 12:08:23;;;;;;;15.30;6.85;;;;;;;;;;5116715;28;20223;-82
2023/03/12 12:11:12;;;;;;;14.57;7.13;;;;;;;;;;5117295;28;20239;-81
2023/03/12 12:13:45;;;;;;;13.05;6.30;;;;;;;;;;5069963;28;20240;-82
2023/03/12 12:16:11;;;;;;;17.15;5.43;;;;;;;;;;5117971;28;20170;-82
2023/03/12 12:18:46;;;;;;;9.70;5.13;;;;;;;;;;5098138;28;20640;-83
2023/03/12 12:21:31;;;;;;;17.20;6.63;;;;;;;;;;5116817;28;20405;-84
2023/03/12 12:24:00;;;;;;;18.92;5.80;;;;;;;;;;5116704;28;20183;-85
2023/03/12 12:26:38;;;;;;;12.00;4.22;;;;;;;;;;5116608;28;20195;-83
2023/03/12 12:29:24;;;;;;;17.05;5.07;;;;;;;;;;5116585;28;20175;-83
2023/03/12 12:31:54;;;;;;;16.55;5.38;;;;;;;;;;5116446;28;20569;-84
2023/03/12 12:34:20;;;;;;;20.58;5.65;;;;;;;;;;5116267;28;20178;-83
2023/03/12 12:36:50;;;;;;;18.30;4.90;;;;;;;;;;5097797;28;20643;-83
2023/03/12 12:39:41;;;;;;;13.68;3.63;;;;;;;;;;5116168;28;20412;-84
2023/03/12 12:42:10;;;;;;;8.63;3.30;;;;;;;;;;5115832;28;20623;-84
2023/03/12 12:44:50;;;;;;;16.25;4.50;;;;;;;;;;5116812;28;20167;-83
2023/03/12 12:47:19;;;;;;;14.65;4.35;;;;;;;;;;5116058;28;20268;-83
2023/03/12 12:49:50;;;;;;;16.92;4.00;;;;;;;;;;5116346;28;20179;-83
2023/03/12 12:52:20;;;;;;;13.18;3.75;;;;;;;;;;5115866;28;20171;-84
2023/03/12 12:55:05;;;;;;;11.45;3.58;;;;;;;;;;5115600;28;20236;-83
2023/03/12 12:57:50;;;;;;;16.52;6.75;;;;;;;;;;5116236;28;20171;-83
2023/03/12 13:00:30;;;;;;;15.02;5.30;;;;;;;;;;5097060;28;20183;-83
2023/03/12 13:02:57;;;;;;;14.55;4.97;;;;;;;;;;5116469;28;20167;-83
2023/03/12 13:05:46;;;;;;;11.75;5.75;;;;;;;;;;5115688;28;20246;-83
2023/03/12 13:08:51;;;;;;;12.50;3.58;;;;;;;;;;5102628;28;20546;-83
2023/03/12 13:11:17;;;;;;;14.75;3.72;;;;;;;;;;5012538;28;20404;-84
2023/03/12 13:13:44;;;;;;;14.00;3.83;;;;;;;;;;5013466;28;20187;-83
2023/03/12 13:16:33;;;;;;;12.77;4.93;;;;;;;;;;5061578;28;20766;-83
2023/03/12 13:19:19;;;;;;;16.38;3.47;;;;;;;;;;5102203;28;20646;-87
2023/03/12 13:22:04;;;;;;;18.95;4.57;;;;;;;;;;5115216;28;20195;-82
2023/03/12 13:24:35;;;;;;;17.85;3.65;;;;;;;;;;5115248;28;20473;-82
2023/03/12 13:27:11;;;;;;;15.98;4.40;;;;;;;;;;5115090;28;20203;-80
2023/03/12 13:29:40;;;;;;;28.83;4.82;;;;;;;;;;5114817;28;20195;-82
2023/03/12 13:32:09;;;;;;;23.23;5.22;;;;;;;;;;5115691;28;20254;-81
2023/03/12 13:34:44;;;;;;;12.05;5.20;;;;;;;;;;5115261;28;20180;-82
2023/03/12 13:37:21;;;;;;;19.55;5.10;;;;;;;;;;5115112;28;20221;-82
2023/03/12 13:39:47;;;;;;;23.08;5.47;;;;;;;;;;5115491;28;20174;-82
2023/03/12 13:42:22;;;;;;;18.02;4.43;;;;;;;;;;5096774;28;20179;-82
2023/03/12 13:44:48;;;;;;;19.50;4.07;;;;;;;;;;5115279;28;20163;-81
2023/03/12 13:47:22;;;;;;;17.08;3.45;;;;;;;;;;5115233;28;20231;-82
2023/03/12 13:50:27;;;;;;;23.13;4.05;;;;;;;;;;5097319;28;20183;-82
2023/03/12 13:53:15;;;;;;;14.75;3.88;;;;;;;;;;5013020;28;20197;-83
2023/03/12 13:55:42;;;;;;;17.83;4.00;;;;;;;;;;5012868;28;20163;-82
2023/03/12 13:58:09;;;;;;;14.98;3.80;;;;;;;;;;5076709;28;20194;-82
2023/03/12 14:00:53;;;;;;;18.73;3.63;;;;;;;;;;5096649;28;20175;-82
2023/03/12 14:03:21;;;;;;;18.92;3.33;;;;;;;;;;5115219;28;20268;-80
2023/03/12 14:05:59;;;;;;;14.70;3.85;;;;;;;;;;5115329;28;20230;-83
2023/03/12 14:08:28;;;;;;;10.82;3.47;;;;;;;;;;5114513;28;20253;-83
2023/03/12 14:11:12;;;;;;;13.63;3.60;;;;;;;;;;5114934;28;20168;-83
2023/03/12 14:13:44;;;;;;;20.80;3.78;;;;;;;;;;5115591;28;20224;-82
2023/03/12 14:16:28;;;;;;;16.05;4.50;;;;;;;;;;5115565;28;20183;-82
2023/03/12 14:18:54;;;;;;;7.65;2.33;;;;;;;;;;5115601;28;20171;-82
2023/03/12 14:21:21;;;;;;;15.05;4.63;;;;;;;;;;5114960;28;20284;-82
2023/03/12 14:23:57;;;;;;;14.18;3.75;;;;;;;;;;5115494;28;20638;-82
2023/03/12 14:26:24;;;;;;;19.95;4.93;;;;;;;;;;5114939;28;20199;-82
2023/03/12 14:28:55;;;;;;;17.45;3.67;;;;;;;;;;5097372;28;20223;-82
2023/03/12 14:31:23;;;;;;;14.93;4.10;;;;;;;;;;5115260;28;20204;-81
2023/03/12 14:34:08;;;;;;;15.85;3.75;;;;;;;;;;5115639;28;20545;-82
2023/03/12 14:36:44;;;;;;;9.65;3.90;;;;;;;;;;5097345;28;20635;-81
2023/03/12 14:39:32;;;;;;;20.48;4.15;;;;;;;;;;5114814;28;20623;-82
2023/03/12 14:42:03;;;;;;;17.52;3.88;;;;;;;;;;5118289;28;20176;-82
2023/03/12 14:44:30;;;;;;;18.50;4.07;;;;;;;;;;5119452;28;20609;-82
2023/03/12 14:47:00;;;;;;;17.35;4.47;;;;;;;;;;5119350;28;20198;-82
2023/03/12 14:49:27;;;;;;;21.13;4.75;;;;;;;;;;5118906;28;20175;-82